createdAt,value
2018-03-20T00:01:04.186Z,24.63
2018-03-20T00:03:36.177Z,21.17
2018-03-20T00:06:07.473Z,20.77
2018-03-20T00:08:38.888Z,21.97
2018-03-20T00:11:10.101Z,18.33
2018-03-20T00:13:41.519Z,20.30
2018-03-20T00:16:12.915Z,21.63
2018-03-20T00:18:44.193Z,19.07
2018-03-20T00:21:15.539Z,19.97
2018-03-20T00:23:46.804Z,18.97
2018-03-20T00:26:18.318Z,17.80
2018-03-20T00:28:49.669Z,17.83
2018-03-20T00:31:20.896Z,17.17
2018-03-20T00:33:52.199Z,15.43
2018-03-20T00:36:23.545Z,20.43
2018-03-20T00:38:54.762Z,15.77
2018-03-20T00:41:26.039Z,17.10
2018-03-20T00:43:57.334Z,16.70
2018-03-20T00:46:28.850Z,18.53
2018-03-20T00:49:00.200Z,14.93
2018-03-20T00:51:31.530Z,16.87
2018-03-20T00:54:02.844Z,16.80
2018-03-20T00:56:34.223Z,14.03
2018-03-20T00:59:06.267Z,16.17
2018-03-20T01:01:37.573Z,16.43
2018-03-20T01:04:08.865Z,15.13
2018-03-20T01:06:40.171Z,15.70
2018-03-20T01:09:11.389Z,18.73
2018-03-20T01:11:42.713Z,16.33
2018-03-20T01:14:14.046Z,20.33
2018-03-20T01:16:45.459Z,17.00
2018-03-20T01:19:16.732Z,14.87
2018-03-20T01:21:48.827Z,14.93
2018-03-20T01:24:20.826Z,16.03
2018-03-20T01:26:52.171Z,17.10
2018-03-20T01:29:23.424Z,18.27
2018-03-20T01:31:55.525Z,16.07
2018-03-20T01:34:26.740Z,17.03
2018-03-20T01:36:58.802Z,15.47
2018-03-20T01:39:30.091Z,15.97
2018-03-20T01:42:01.458Z,15.83
2018-03-20T01:44:32.743Z,19.17
2018-03-20T01:47:03.992Z,16.83
2018-03-20T01:49:35.235Z,19.53
2018-03-20T01:52:06.473Z,14.80
2018-03-20T01:54:37.724Z,18.50
2018-03-20T01:57:08.951Z,17.97
2018-03-20T01:59:40.173Z,17.43
2018-03-20T02:02:11.403Z,17.43
2018-03-20T02:04:43.420Z,15.97
2018-03-20T02:07:14.668Z,17.33
2018-03-20T02:09:45.913Z,16.23
2018-03-20T02:12:17.246Z,19.43
2018-03-20T02:14:48.687Z,20.83
2018-03-20T02:17:19.944Z,18.40
2018-03-20T02:19:51.935Z,13.57
2018-03-20T02:22:23.920Z,17.67
2018-03-20T02:24:55.854Z,17.87
2018-03-20T02:27:27.873Z,19.33
2018-03-20T02:29:59.071Z,18.17
2018-03-20T02:32:31.086Z,17.43
2018-03-20T02:35:02.345Z,13.33
2018-03-20T02:37:34.098Z,16.30
2018-03-20T02:40:05.298Z,12.10
2018-03-20T02:42:36.533Z,16.03
2018-03-20T02:45:07.793Z,14.63
2018-03-20T02:47:39.026Z,14.03
2018-03-20T02:50:10.331Z,14.87
2018-03-20T02:52:41.761Z,13.23
2018-03-20T02:55:13.199Z,13.17
2018-03-20T02:57:44.495Z,13.47
2018-03-20T03:00:15.693Z,13.57
2018-03-20T03:02:46.944Z,15.53
2018-03-20T03:05:18.168Z,14.70
2018-03-20T03:07:49.422Z,14.17
2018-03-20T03:10:20.646Z,14.23
2018-03-20T03:12:52.220Z,13.63
2018-03-20T03:15:23.419Z,18.33
2018-03-20T03:17:54.742Z,16.10
2018-03-20T03:20:25.940Z,14.50
2018-03-20T03:22:57.170Z,14.93
2018-03-20T03:25:29.117Z,18.50
2018-03-20T03:28:01.112Z,13.67
2018-03-20T03:30:32.326Z,14.20
2018-03-20T03:33:03.640Z,15.83
2018-03-20T03:35:34.880Z,16.40
2018-03-20T03:38:06.410Z,15.20
2018-03-20T03:40:37.627Z,16.87
2018-03-20T03:43:08.818Z,11.63
2018-03-20T03:45:40.059Z,16.37
2018-03-20T03:48:11.257Z,12.63
2018-03-20T03:50:42.658Z,9.73
2018-03-20T03:53:13.931Z,10.60
2018-03-20T03:55:45.201Z,13.60
2018-03-20T03:58:16.516Z,12.07
2018-03-20T04:00:47.757Z,11.33
2018-03-20T04:03:18.994Z,12.73
2018-03-20T04:05:50.388Z,11.30
2018-03-20T04:08:21.687Z,11.57
2018-03-20T04:10:53.629Z,14.60
2018-03-20T04:13:24.854Z,10.00
2018-03-20T04:15:56.119Z,12.77
2018-03-20T04:18:27.432Z,14.07
2018-03-20T04:20:59.398Z,19.67
2018-03-20T04:23:30.603Z,11.37
2018-03-20T04:26:01.864Z,10.20
2018-03-20T04:28:33.086Z,12.33
2018-03-20T04:31:04.605Z,15.90
2018-03-20T04:33:35.863Z,12.90
2018-03-20T04:36:07.033Z,13.20
2018-03-20T04:38:38.377Z,11.40
2018-03-20T04:41:09.672Z,12.77
2018-03-20T04:43:40.964Z,10.50
2018-03-20T04:46:13.723Z,11.90
2018-03-20T04:48:45.255Z,10.30
2018-03-20T04:51:16.496Z,12.80
2018-03-20T04:53:48.084Z,10.33
2018-03-20T04:56:19.316Z,12.97
2018-03-20T04:58:50.619Z,14.17
2018-03-20T05:01:21.909Z,13.80
2018-03-20T05:03:53.200Z,11.37
2018-03-20T05:06:24.493Z,13.90
2018-03-20T05:08:55.706Z,13.27
2018-03-20T05:11:27.373Z,12.83
2018-03-20T05:13:58.602Z,11.57
2018-03-20T05:16:30.176Z,12.77
2018-03-20T05:19:21.259Z,12.90
2018-03-20T05:21:55.893Z,12.60
2018-03-20T05:24:27.133Z,11.30
2018-03-20T05:26:58.745Z,12.37
2018-03-20T05:29:31.042Z,12.70
2018-03-20T05:32:02.302Z,11.53
2018-03-20T05:34:33.650Z,14.07
2018-03-20T05:37:04.898Z,15.37
2018-03-20T05:39:36.317Z,12.87
2018-03-20T05:42:08.302Z,14.47
2018-03-20T05:44:39.870Z,12.90
2018-03-20T05:47:26.177Z,11.53
2018-03-20T05:50:03.576Z,13.17
2018-03-20T05:52:34.844Z,16.83
2018-03-20T05:55:06.157Z,12.30
2018-03-20T05:57:37.407Z,12.43
2018-03-20T06:00:08.659Z,13.47
2018-03-20T06:02:39.978Z,13.93
2018-03-20T06:05:11.202Z,11.13
2018-03-20T06:07:42.435Z,13.10
2018-03-20T06:10:13.675Z,13.67
2018-03-20T06:12:46.009Z,11.57
2018-03-20T06:15:17.292Z,11.47
2018-03-20T06:17:48.674Z,14.77
2018-03-20T06:20:20.039Z,14.77
2018-03-20T06:22:51.254Z,15.70
2018-03-20T06:25:22.512Z,14.50
2018-03-20T06:27:53.773Z,14.30
2018-03-20T06:30:25.067Z,15.63
2018-03-20T06:32:56.259Z,13.03
2018-03-20T06:35:27.865Z,16.17
2018-03-20T06:37:59.149Z,15.30
2018-03-20T06:40:30.406Z,13.97
2018-03-20T06:43:01.683Z,12.43
2018-03-20T06:45:33.741Z,14.10
2018-03-20T06:48:04.971Z,12.63
2018-03-20T06:50:36.231Z,13.73
2018-03-20T06:53:08.414Z,15.73
2018-03-20T06:55:40.429Z,15.13
2018-03-20T06:58:11.651Z,18.50
2018-03-20T07:00:42.995Z,15.33
2018-03-20T07:03:14.375Z,15.70
2018-03-20T07:05:45.614Z,17.47
2018-03-20T07:08:16.943Z,13.00
2018-03-20T07:10:48.289Z,15.23
2018-03-20T07:13:19.740Z,13.37
2018-03-20T07:15:51.037Z,13.63
2018-03-20T07:18:22.575Z,12.80
2018-03-20T07:20:54.001Z,13.60
2018-03-20T07:23:25.378Z,16.07
2018-03-20T07:25:57.444Z,15.77
2018-03-20T07:28:28.792Z,17.77
2018-03-20T07:31:00.055Z,17.40
2018-03-20T07:33:32.060Z,20.27
2018-03-20T07:36:03.272Z,18.37
2018-03-20T07:38:34.783Z,17.40
2018-03-20T07:41:06.242Z,16.50
2018-03-20T07:43:37.552Z,23.47
2018-03-20T07:46:08.826Z,22.23
2018-03-20T07:48:40.098Z,18.40
2018-03-20T07:51:11.386Z,23.47
2018-03-20T07:53:42.652Z,19.63
2018-03-20T07:56:13.908Z,19.33
2018-03-20T07:58:45.156Z,19.33
2018-03-20T08:01:16.492Z,20.03
2018-03-20T08:03:47.799Z,19.77
2018-03-20T08:06:19.060Z,19.97
2018-03-20T08:08:51.121Z,18.13
2018-03-20T08:11:22.452Z,19.53
2018-03-20T08:13:53.703Z,17.53
2018-03-20T08:16:24.935Z,16.83
2018-03-20T08:18:56.310Z,20.83
2018-03-20T08:21:27.725Z,22.07
2018-03-20T08:23:59.014Z,17.87
2018-03-20T08:26:30.990Z,17.90
2018-03-20T08:29:02.971Z,20.27
2018-03-20T08:31:34.928Z,19.77
2018-03-20T08:34:06.210Z,21.67
2018-03-20T08:36:37.804Z,19.77
2018-03-20T08:39:09.015Z,23.17
2018-03-20T08:41:40.337Z,25.83
2018-03-20T08:44:11.568Z,23.77
2018-03-20T08:46:42.889Z,23.27
2018-03-20T08:49:14.919Z,20.40
2018-03-20T08:51:46.219Z,20.43
2018-03-20T08:54:18.190Z,25.03
2018-03-20T08:56:49.543Z,22.40
2018-03-20T08:59:20.755Z,24.77
2018-03-20T09:01:52.074Z,22.70
2018-03-20T09:04:23.398Z,22.00
2018-03-20T09:06:54.779Z,22.07
2018-03-20T09:09:26.074Z,19.83
2018-03-20T09:11:57.660Z,24.33
2018-03-20T09:14:29.091Z,25.63
2018-03-20T09:17:00.397Z,24.90
2018-03-20T09:19:32.420Z,22.43
2018-03-20T09:22:03.796Z,22.33
2018-03-20T09:24:35.111Z,21.53
2018-03-20T09:27:06.347Z,20.30
2018-03-20T09:29:37.639Z,21.83
2018-03-20T09:32:09.656Z,21.47
2018-03-20T09:34:41.031Z,18.37
2018-03-20T09:37:13.088Z,19.70
2018-03-20T09:39:44.297Z,28.00
2018-03-20T09:42:15.552Z,24.03
2018-03-20T09:44:46.818Z,21.67
2018-03-20T09:47:18.036Z,19.33
2018-03-20T09:49:49.439Z,22.33
2018-03-20T09:52:20.686Z,24.07
2018-03-20T09:54:52.638Z,19.83
2018-03-20T09:57:23.839Z,20.90
2018-03-20T09:59:55.071Z,20.40
2018-03-20T10:02:26.344Z,21.83
2018-03-20T10:04:57.612Z,22.13
2018-03-20T10:07:28.830Z,23.33
2018-03-20T10:10:00.097Z,19.13
2018-03-20T10:12:32.135Z,17.57
2018-03-20T10:15:03.375Z,18.17
2018-03-20T10:17:34.681Z,18.10
2018-03-20T10:20:07.171Z,20.83
2018-03-20T10:22:39.439Z,18.17
2018-03-20T10:25:10.915Z,18.20
2018-03-20T10:27:42.123Z,18.13
2018-03-20T10:30:13.381Z,21.60
2018-03-20T10:32:44.686Z,18.57
2018-03-20T10:35:16.684Z,18.80
2018-03-20T10:37:47.912Z,19.10
2018-03-20T10:40:19.129Z,19.23
2018-03-20T10:42:51.169Z,19.67
2018-03-20T10:45:22.413Z,19.37
2018-03-20T10:47:54.496Z,21.57
2018-03-20T10:50:25.996Z,18.57
2018-03-20T10:52:57.283Z,11.33
2018-03-20T10:55:28.777Z,21.97
2018-03-20T10:58:00.084Z,21.07
2018-03-20T11:00:37.536Z,22.07
2018-03-20T11:03:08.851Z,24.10
2018-03-20T11:05:40.768Z,21.83
2018-03-20T11:08:12.094Z,20.43
2018-03-20T11:10:43.275Z,15.60
2018-03-20T11:13:15.387Z,18.97
2018-03-20T11:15:46.721Z,15.37
2018-03-20T11:18:18.656Z,19.23
2018-03-20T11:20:49.924Z,19.83
2018-03-20T11:23:21.185Z,22.67
2018-03-20T11:25:52.480Z,22.00
2018-03-20T11:28:24.586Z,11.07
2018-03-20T11:30:55.844Z,19.37
2018-03-20T11:33:27.058Z,25.63
2018-03-20T11:36:00.167Z,19.87
2018-03-20T11:38:31.444Z,19.47
2018-03-20T11:41:02.722Z,13.00
2018-03-20T11:43:33.951Z,20.17
2018-03-20T11:46:05.414Z,8.00
2018-03-20T11:48:36.743Z,21.23
2018-03-20T11:51:08.075Z,20.60
2018-03-20T11:53:42.755Z,21.43
2018-03-20T11:56:14.164Z,20.00
2018-03-20T11:58:46.162Z,23.73
2018-03-20T12:01:18.268Z,22.97
2018-03-20T12:03:49.876Z,18.77
2018-03-20T12:06:21.973Z,20.67
2018-03-20T12:09:06.515Z,20.47
2018-03-20T12:11:37.807Z,19.70
2018-03-20T12:14:09.252Z,22.63
2018-03-20T12:16:40.446Z,18.43
2018-03-20T12:19:12.423Z,20.97
2018-03-20T12:21:43.647Z,11.33
2018-03-20T12:24:15.719Z,22.13
2018-03-20T12:26:47.007Z,11.43
2018-03-20T12:29:18.239Z,14.53
2018-03-20T12:31:49.658Z,18.90
2018-03-20T12:34:21.638Z,22.40
2018-03-20T12:36:52.912Z,15.10
2018-03-20T12:39:24.250Z,17.30
2018-03-20T12:41:55.537Z,19.67
2018-03-20T12:44:27.180Z,17.30
2018-03-20T12:46:58.444Z,17.37
2018-03-20T12:49:30.534Z,13.63
2018-03-20T12:52:03.304Z,15.53
2018-03-20T12:54:35.409Z,16.03
2018-03-20T12:57:06.687Z,15.83
2018-03-20T12:59:37.980Z,18.90
2018-03-20T13:02:09.274Z,11.63
2018-03-20T13:04:41.407Z,17.10
2018-03-20T13:07:13.676Z,14.93
2018-03-20T13:09:45.020Z,18.63
2018-03-20T13:12:16.565Z,15.60
2018-03-20T13:14:47.799Z,16.13
2018-03-20T13:17:19.162Z,18.97
2018-03-20T13:19:50.486Z,7.57
2018-03-20T13:22:23.017Z,15.83
2018-03-20T13:24:54.332Z,15.93
2018-03-20T13:27:25.591Z,13.70
2018-03-20T13:29:56.835Z,14.20
2018-03-20T13:32:28.606Z,13.67
2018-03-20T13:34:59.881Z,17.97
2018-03-20T13:37:31.928Z,14.47
2018-03-20T13:40:03.106Z,14.87
2018-03-20T13:42:34.384Z,14.53
2018-03-20T13:45:05.719Z,15.40
2018-03-20T13:47:36.939Z,15.33
2018-03-20T13:50:08.140Z,14.30
2018-03-20T13:52:39.664Z,15.80
2018-03-20T13:55:10.879Z,12.43
2018-03-20T13:57:42.233Z,7.10
2018-03-20T14:00:13.530Z,9.57
2018-03-20T14:02:44.711Z,13.33
2018-03-20T14:05:16.409Z,12.70
2018-03-20T14:07:47.632Z,10.87
2018-03-20T14:10:20.648Z,12.23
2018-03-20T14:12:51.857Z,12.67
2018-03-20T14:15:23.122Z,9.13
2018-03-20T14:17:54.297Z,14.53
2018-03-20T14:20:26.395Z,11.43
2018-03-20T14:22:57.766Z,13.20
2018-03-20T14:25:29.308Z,9.97
2018-03-20T14:28:00.639Z,9.70
2018-03-20T14:30:31.904Z,13.90
2018-03-20T14:33:03.255Z,9.73
2018-03-20T14:35:34.437Z,11.87
2018-03-20T14:38:06.395Z,12.17
2018-03-20T14:40:37.644Z,8.90
2018-03-20T14:43:08.847Z,10.30
2018-03-20T14:45:40.112Z,8.70
2018-03-20T14:48:12.086Z,9.67
2018-03-20T14:50:43.332Z,7.43
2018-03-20T14:53:15.349Z,7.60
2018-03-20T14:55:46.615Z,7.60
2018-03-20T14:58:22.303Z,9.23
2018-03-20T15:00:53.604Z,4.57
2018-03-20T15:03:25.030Z,9.67
2018-03-20T15:05:56.498Z,5.40
2018-03-20T15:08:27.771Z,5.37
2018-03-20T15:10:59.754Z,6.07
2018-03-20T15:13:30.992Z,5.20
2018-03-20T15:16:03.048Z,3.90
2018-03-20T15:18:34.256Z,5.23
2018-03-20T15:21:05.519Z,3.70
2018-03-20T15:23:36.749Z,5.40
2018-03-20T15:26:08.098Z,5.33
2018-03-20T15:28:39.306Z,4.17
2018-03-20T15:31:10.537Z,4.67
2018-03-20T15:33:41.755Z,4.10
2018-03-20T15:36:12.939Z,3.03
2018-03-20T15:38:44.529Z,3.77
2018-03-20T15:41:15.836Z,5.83
2018-03-20T15:43:47.039Z,1.67
2018-03-20T15:46:18.377Z,1.30
2018-03-20T15:48:49.808Z,2.93
2018-03-20T15:51:21.898Z,5.37
2018-03-20T15:53:53.227Z,4.87
2018-03-20T15:56:24.757Z,6.40
2018-03-20T15:58:56.210Z,3.17
2018-03-20T16:01:27.507Z,3.83
2018-03-20T16:03:58.751Z,2.70
2018-03-20T16:06:30.213Z,1.20
2018-03-20T16:09:01.593Z,6.90
2018-03-20T16:11:32.873Z,2.20
2018-03-20T16:14:04.176Z,7.27
2018-03-20T16:16:35.515Z,2.10
2018-03-20T16:19:06.825Z,2.90
2018-03-20T16:21:38.863Z,3.20
2018-03-20T16:24:10.184Z,2.30
2018-03-20T16:26:41.452Z,4.37
2018-03-20T16:29:12.913Z,4.70
2018-03-20T16:31:45.001Z,2.67
2018-03-20T16:34:16.305Z,6.43
2018-03-20T16:36:47.554Z,1.33
2018-03-20T16:39:19.901Z,2.10
2018-03-20T16:41:51.073Z,3.67
2018-03-20T16:44:23.188Z,2.77
2018-03-20T16:46:55.297Z,3.57
2018-03-20T16:49:27.777Z,2.83
2018-03-20T16:51:58.986Z,4.40
2018-03-20T16:54:30.563Z,2.93
2018-03-20T16:57:01.847Z,4.17
2018-03-20T16:59:33.181Z,2.50
2018-03-20T17:02:04.519Z,2.83
2018-03-20T17:04:35.888Z,5.20
2018-03-20T17:07:15.041Z,2.37
2018-03-20T17:09:46.379Z,2.83
2018-03-20T17:12:17.774Z,5.17
2018-03-20T17:14:49.207Z,4.13
2018-03-20T17:17:20.448Z,3.60
2018-03-20T17:19:51.623Z,5.20
2018-03-20T17:22:23.593Z,4.50
2018-03-20T17:24:54.880Z,5.57
2018-03-20T17:27:26.272Z,3.93
2018-03-20T17:29:57.744Z,6.83
2018-03-20T17:32:29.158Z,2.67
2018-03-20T17:35:01.889Z,6.73
2018-03-20T17:37:33.495Z,4.03
2018-03-20T17:40:04.758Z,4.13
2018-03-20T17:42:36.319Z,6.60
2018-03-20T17:45:08.760Z,4.83
2018-03-20T17:47:40.064Z,2.50
2018-03-20T17:50:11.319Z,2.20
2018-03-20T17:52:42.575Z,3.43
2018-03-20T17:55:13.952Z,3.23
2018-03-20T17:57:45.130Z,2.23
2018-03-20T18:00:16.440Z,3.97
2018-03-20T18:02:47.756Z,4.83
2018-03-20T18:05:19.099Z,3.67
2018-03-20T18:07:50.473Z,3.43
2018-03-20T18:10:21.700Z,3.87
2018-03-20T18:12:52.924Z,2.63
2018-03-20T18:15:24.200Z,4.20
2018-03-20T18:17:55.395Z,3.13
2018-03-20T18:20:26.776Z,5.90
2018-03-20T18:22:58.100Z,3.53
2018-03-20T18:25:29.691Z,3.63
2018-03-20T18:28:00.940Z,6.73
2018-03-20T18:30:33.065Z,4.60
2018-03-20T18:33:04.277Z,6.47
2018-03-20T18:35:35.558Z,3.30
2018-03-20T18:38:06.808Z,1.67
2018-03-20T18:40:38.045Z,2.23
2018-03-20T18:43:09.289Z,3.07
2018-03-20T18:45:40.508Z,4.80
2018-03-20T18:48:11.928Z,2.87
2018-03-20T18:50:43.943Z,4.10
2018-03-20T18:53:15.256Z,4.17
2018-03-20T18:55:46.712Z,7.27
2018-03-20T18:58:18.673Z,5.30
2018-03-20T19:00:50.885Z,3.53
2018-03-20T19:03:22.329Z,3.63
2018-03-20T19:05:53.670Z,4.60
2018-03-20T19:08:25.089Z,5.67
2018-03-20T19:10:56.335Z,7.97
2018-03-20T19:13:27.647Z,6.73
2018-03-20T19:15:58.875Z,4.30
2018-03-20T19:18:30.362Z,3.40
2018-03-20T19:21:01.671Z,7.47
2018-03-20T19:23:33.095Z,6.73
2018-03-20T19:26:04.373Z,4.30
2018-03-20T19:28:35.773Z,6.00
2018-03-20T19:31:07.067Z,5.97
2018-03-20T19:33:38.295Z,7.00
2018-03-20T19:36:09.586Z,7.37
2018-03-20T19:38:41.641Z,7.97
2018-03-20T19:41:12.897Z,6.37
2018-03-20T19:43:44.892Z,4.43
2018-03-20T19:46:16.239Z,8.17
2018-03-20T19:48:47.584Z,5.83
2018-03-20T19:51:18.830Z,5.83
2018-03-20T19:53:50.038Z,6.23
2018-03-20T19:56:21.428Z,4.20
2018-03-20T19:58:52.813Z,4.87
2018-03-20T20:01:24.025Z,3.77
2018-03-20T20:03:55.259Z,4.93
2018-03-20T20:06:26.510Z,4.07
2018-03-20T20:08:57.915Z,3.03
2018-03-20T20:11:29.970Z,4.53
2018-03-20T20:14:01.373Z,5.40
2018-03-20T20:16:32.760Z,3.20
2018-03-20T20:19:04.856Z,5.80
2018-03-20T20:21:36.180Z,5.90
2018-03-20T20:24:08.305Z,4.90
2018-03-20T20:26:39.621Z,3.73
2018-03-20T20:29:11.548Z,5.60
2018-03-20T20:31:42.745Z,4.90
2018-03-20T20:34:13.959Z,3.63
2018-03-20T20:36:46.296Z,5.20
2018-03-20T20:39:17.745Z,4.70
2018-03-20T20:41:48.955Z,4.70
2018-03-20T20:44:20.196Z,5.67
2018-03-20T20:46:51.443Z,6.13
2018-03-20T20:49:22.682Z,3.83
2018-03-20T20:51:53.874Z,4.63
2018-03-20T20:54:25.306Z,5.87
2018-03-20T20:56:56.724Z,4.17
2018-03-20T20:59:28.184Z,3.97
2018-03-20T21:01:59.489Z,6.47
2018-03-20T21:04:31.505Z,4.77
2018-03-20T21:07:03.533Z,6.40
2018-03-20T21:09:34.823Z,5.07
2018-03-20T21:12:06.101Z,4.83
2018-03-20T21:14:37.562Z,3.57
2018-03-20T21:17:09.787Z,6.80
2018-03-20T21:19:41.096Z,4.27
2018-03-20T21:22:12.301Z,4.23
2018-03-20T21:24:44.284Z,5.40
2018-03-20T21:27:15.578Z,6.43
2018-03-20T21:29:46.834Z,3.50
2018-03-20T21:32:18.037Z,4.10
2018-03-20T21:34:49.287Z,4.43
2018-03-20T21:37:20.467Z,5.40
2018-03-20T21:39:51.759Z,6.53
2018-03-20T21:42:22.981Z,6.03
2018-03-20T21:44:54.928Z,4.30
2018-03-20T21:47:26.352Z,4.23
2018-03-20T21:49:57.635Z,3.90
2018-03-20T21:52:28.866Z,6.80
2018-03-20T21:55:01.005Z,6.13
2018-03-20T21:57:32.241Z,5.73
2018-03-20T22:00:04.232Z,5.27
2018-03-20T22:02:35.640Z,4.57
2018-03-20T22:05:07.139Z,5.53
2018-03-20T22:07:38.440Z,4.13
2018-03-20T22:10:09.773Z,6.33
2018-03-20T22:12:41.192Z,5.53
2018-03-20T22:17:55.505Z,4.57
2018-03-20T22:20:27.251Z,5.10
2018-03-20T22:22:58.503Z,5.57
2018-03-20T22:25:29.785Z,7.70
2018-03-20T22:28:01.042Z,5.20
2018-03-20T22:30:32.330Z,7.43
2018-03-20T22:33:03.515Z,6.93
2018-03-20T22:35:34.752Z,7.47
2018-03-20T22:38:05.983Z,5.97
2018-03-20T22:40:37.253Z,6.47
2018-03-20T22:43:09.186Z,6.90
2018-03-20T22:45:40.571Z,6.77
2018-03-20T22:48:11.872Z,5.27
2018-03-20T22:50:43.134Z,5.63
2018-03-20T22:53:17.091Z,5.43
2018-03-20T22:55:48.590Z,5.80
2018-03-20T22:58:19.830Z,5.23
2018-03-20T23:00:51.386Z,5.23
2018-03-20T23:03:22.559Z,6.10
2018-03-20T23:05:54.724Z,6.80
2018-03-20T23:08:25.966Z,6.57
2018-03-20T23:10:58.008Z,6.63
2018-03-20T23:13:29.678Z,7.80
2018-03-20T23:16:27.754Z,8.33
2018-03-20T23:18:59.767Z,7.30
2018-03-20T23:21:30.984Z,9.43
2018-03-20T23:24:02.354Z,6.90
2018-03-20T23:26:33.560Z,8.90
2018-03-20T23:29:05.819Z,10.03
2018-03-20T23:31:37.874Z,9.30
2018-03-20T23:34:09.052Z,8.33
2018-03-20T23:36:40.295Z,9.03
2018-03-20T23:39:11.487Z,6.80
2018-03-20T23:41:42.768Z,10.20
2018-03-20T23:44:14.027Z,8.53
2018-03-20T23:46:45.619Z,5.80
2018-03-20T23:49:16.807Z,10.83
2018-03-20T23:51:49.031Z,7.33
2018-03-20T23:54:20.205Z,9.03
2018-03-20T23:56:51.865Z,8.50
2018-03-20T23:59:23.189Z,9.80
